Sunday, November 19, 2017, 2:52 AM GMT
Back to Local

CWFQ, Frelighsburg

Location: , , Canada Lat: 45.05
Local Time: 2:52 AM GMT ( 2:52 GMT) Lon: -72.833
Time Zone: GMT Elev: 498 ft

Show me the last for .
Show Decoded

2017-11-19 02:00 METAR CWFQ 190200Z AUTO 14007KT 02/M03 RMK AO1 SOG 01 8033 SLP961 T00191030 =
2017-11-19 01:00 METAR CWFQ 190100Z AUTO 14007KT 02/M04 RMK AO1 SOG 01 8025 SLP976 T00171040 =
2017-11-19 00:00 METAR CWFQ 190000Z AUTO 14006KT 02/M06 RMK AO1 SOG 01 8016 SLP989 T00171056 =
2017-11-18 23:00 METAR CWFQ 182300Z AUTO 15005KT 01/M06 RMK AO1 SOG 01 8010 SLP997 T00051062 =
2017-11-18 22:00 METAR CWFQ 182200Z AUTO 15004KT 01/M08 RMK AO1 SOG 01 6019 SLP003 T00051076 =
2017-11-18 21:00 METAR CWFQ 182100Z AUTO 15008KT 02/M08 RMK AO1 SOG 01 6039 SLP006 T00191076 =
2017-11-18 20:00 METAR CWFQ 182000Z AUTO 15007KT 02/M08 RMK AO1 SOG 01 8044 SLP007 T00211084 =
2017-11-18 19:00 METAR CWFQ 181900Z AUTO 14006KT 02/M09 RMK AO1 PRESFR SOG 01 8038 SLP023
                 T00221093 =
2017-11-18 18:00 METAR CWFQ 181800Z AUTO 14003KT 02/M10 RMK AO1 SOG 01 6033 SLP046 T00181095 =
2017-11-18 17:00 METAR CWFQ 181700Z AUTO 16002KT 02/M11 RMK AO1 SOG 01 6039 SLP053 T00161109 =
2017-11-18 16:00 METAR CWFQ 181600Z AUTO 14006KT M00/M11 RMK AO1 SOG 01 8046 SLP062 T10021108 =
2017-11-18 15:00 METAR CWFQ 181500Z AUTO 13006KT M00/M11 RMK AO1 SOG 01 8039 SLP081 T10031106 =
2017-11-18 14:00 METAR CWFQ 181400Z AUTO 12006KT M02/M12 RMK AO1 SOG 01 8033 SLP093 T10201120 =
2017-11-18 13:00 METAR CWFQ 181300Z AUTO 13004KT M04/M11 RMK AO1 SOG 01 8027 SLP110 T10371113 =
2017-11-18 12:00 METAR CWFQ 181200Z AUTO 14004KT M05/M10 RMK AO1 SOG 01 6028 SLP122 T10481103 =
2017-11-18 11:00 METAR CWFQ 181100Z AUTO 14005KT M07/M10 RMK AO1 SOG 01 8021 SLP128 T10691098 =
2017-11-18 10:00 METAR CWFQ 181000Z AUTO 15003KT M07/M10 RMK AO1 SOG 01 8019 SLP139 T10701097 =
2017-11-18 09:00 METAR CWFQ 180900Z AUTO 16004KT M08/M10 RMK AO1 SOG 01 5008 SLP151 T10801102 =
2017-11-18 08:00 METAR CWFQ 180800Z AUTO 16004KT M08/M10 RMK AO1 SOG 01 7017 SLP150 T10771102 =
2017-11-18 07:00 METAR CWFQ 180700Z AUTO 18004KT M07/M10 RMK AO1 SOG 01 6015 SLP158 T10651100 =
2017-11-18 06:00 METAR CWFQ 180600Z AUTO 18003KT M07/M09 RMK AO1 SOG 01 8015 SLP159 T10741094 =
2017-11-18 05:00 METAR CWFQ 180500Z AUTO 19002KT M07/M10 RMK AO1 SOG 01 6015 SLP168 T10741095 =
2017-11-18 04:00 METAR CWFQ 180400Z AUTO 20002KT M07/M09 RMK AO1 SOG 01 6011 SLP173 T10661094 =
2017-11-18 03:00 METAR CWFQ 180300Z AUTO 23001KT M07/M10 RMK AO1 SOG 01 8014 SLP174 T10691098 =

Support USWX by starting your Amazon purchase here.